sensor_id;sensor_type;location;lat;lon;timestamp;temperature;humidity
76203;DHT22;64985;46.364;17.008;2023-09-12T00:00:09;13.20;99.90
76203;DHT22;64985;46.364;17.008;2023-09-12T00:03:13;13.20;99.90
76203;DHT22;64985;46.364;17.008;2023-09-12T00:06:16;13.20;99.90
76203;DHT22;64985;46.364;17.008;2023-09-12T00:09:19;13.10;99.90
76203;DHT22;64985;46.364;17.008;2023-09-12T00:12:23;13.10;99.90
76203;DHT22;64985;46.364;17.008;2023-09-12T00:15:27;13.10;99.90
76203;DHT22;64985;46.364;17.008;2023-09-12T00:18:29;13.10;99.90
76203;DHT22;64985;46.364;17.008;2023-09-12T00:21:31;13.00;99.90
76203;DHT22;64985;46.364;17.008;2023-09-12T00:24:33;13.00;99.90
76203;DHT22;64985;46.364;17.008;2023-09-12T00:27:35;12.90;99.90
76203;DHT22;64985;46.364;17.008;2023-09-12T00:30:38;12.90;99.90
76203;DHT22;64985;46.364;17.008;2023-09-12T00:33:40;12.80;99.90
76203;DHT22;64985;46.364;17.008;2023-09-12T00:36:42;12.80;99.90
76203;DHT22;64985;46.364;17.008;2023-09-12T00:39:44;12.70;99.90
76203;DHT22;64985;46.364;17.008;2023-09-12T00:42:47;12.70;99.90
76203;DHT22;64985;46.364;17.008;2023-09-12T00:45:49;12.70;99.90
76203;DHT22;64985;46.364;17.008;2023-09-12T00:48:52;12.70;99.90
76203;DHT22;64985;46.364;17.008;2023-09-12T00:51:56;12.70;99.90
76203;DHT22;64985;46.364;17.008;2023-09-12T00:54:59;12.70;99.90
76203;DHT22;64985;46.364;17.008;2023-09-12T00:58:01;12.70;99.90
76203;DHT22;64985;46.364;17.008;2023-09-12T01:01:04;12.80;99.90
76203;DHT22;64985;46.364;17.008;2023-09-12T01:04:06;12.80;99.90
76203;DHT22;64985;46.364;17.008;2023-09-12T01:07:21;12.90;99.90
76203;DHT22;64985;46.364;17.008;2023-09-12T01:10:24;13.00;99.90
76203;DHT22;64985;46.364;17.008;2023-09-12T01:13:27;13.00;99.90
76203;DHT22;64985;46.364;17.008;2023-09-12T01:16:29;13.00;99.90
76203;DHT22;64985;46.364;17.008;2023-09-12T01:19:31;13.00;99.90
76203;DHT22;64985;46.364;17.008;2023-09-12T01:29:35;12.90;99.90
76203;DHT22;64985;46.364;17.008;2023-09-12T01:32:37;12.70;99.90
76203;DHT22;64985;46.364;17.008;2023-09-12T01:35:40;12.60;99.90
76203;DHT22;64985;46.364;17.008;2023-09-12T01:38:42;12.60;99.90
76203;DHT22;64985;46.364;17.008;2023-09-12T01:41:47;12.50;99.90
76203;DHT22;64985;46.364;17.008;2023-09-12T01:44:52;12.60;99.90
76203;DHT22;64985;46.364;17.008;2023-09-12T01:47:56;12.60;99.90
76203;DHT22;64985;46.364;17.008;2023-09-12T01:51:02;12.70;99.90
76203;DHT22;64985;46.364;17.008;2023-09-12T01:54:06;12.60;99.90
76203;DHT22;64985;46.364;17.008;2023-09-12T01:57:09;12.50;99.90
76203;DHT22;64985;46.364;17.008;2023-09-12T02:00:13;12.30;99.90
76203;DHT22;64985;46.364;17.008;2023-09-12T02:03:15;12.30;99.90
76203;DHT22;64985;46.364;17.008;2023-09-12T02:06:17;12.30;99.90
76203;DHT22;64985;46.364;17.008;2023-09-12T02:09:19;12.30;99.90
76203;DHT22;64985;46.364;17.008;2023-09-12T02:12:22;12.20;99.90
76203;DHT22;64985;46.364;17.008;2023-09-12T02:15:24;12.10;99.90
76203;DHT22;64985;46.364;17.008;2023-09-12T02:18:26;12.10;99.90
76203;DHT22;64985;46.364;17.008;2023-09-12T02:21:29;11.90;99.90
76203;DHT22;64985;46.364;17.008;2023-09-12T02:24:34;11.80;99.90
76203;DHT22;64985;46.364;17.008;2023-09-12T02:27:37;11.80;99.90
76203;DHT22;64985;46.364;17.008;2023-09-12T02:30:39;11.70;99.90
76203;DHT22;64985;46.364;17.008;2023-09-12T02:33:45;11.70;99.90
76203;DHT22;64985;46.364;17.008;2023-09-12T02:36:47;11.70;99.90
76203;DHT22;64985;46.364;17.008;2023-09-12T02:39:49;11.80;99.90
76203;DHT22;64985;46.364;17.008;2023-09-12T02:42:52;11.80;99.90
76203;DHT22;64985;46.364;17.008;2023-09-12T02:45:54;11.80;99.90
76203;DHT22;64985;46.364;17.008;2023-09-12T02:48:56;11.80;99.90
76203;DHT22;64985;46.364;17.008;2023-09-12T02:51:58;11.80;99.90
76203;DHT22;64985;46.364;17.008;2023-09-12T02:55:00;11.80;99.90
76203;DHT22;64985;46.364;17.008;2023-09-12T02:58:03;11.80;99.90
76203;DHT22;64985;46.364;17.008;2023-09-12T03:01:05;11.80;99.90
76203;DHT22;64985;46.364;17.008;2023-09-12T03:04:08;11.90;99.90
76203;DHT22;64985;46.364;17.008;2023-09-12T03:07:10;11.90;99.90
76203;DHT22;64985;46.364;17.008;2023-09-12T03:10:12;12.00;99.90
76203;DHT22;64985;46.364;17.008;2023-09-12T03:13:14;12.00;99.90
76203;DHT22;64985;46.364;17.008;2023-09-12T03:16:17;12.00;99.90
76203;DHT22;64985;46.364;17.008;2023-09-12T03:19:19;12.00;99.90
76203;DHT22;64985;46.364;17.008;2023-09-12T03:22:21;11.90;99.90
76203;DHT22;64985;46.364;17.008;2023-09-12T03:25:23;11.70;99.90
76203;DHT22;64985;46.364;17.008;2023-09-12T03:28:25;11.60;99.90
76203;DHT22;64985;46.364;17.008;2023-09-12T03:31:27;11.60;99.90
76203;DHT22;64985;46.364;17.008;2023-09-12T03:34:31;11.50;99.90
76203;DHT22;64985;46.364;17.008;2023-09-12T03:37:33;11.50;99.90
76203;DHT22;64985;46.364;17.008;2023-09-12T03:40:35;11.50;99.90
76203;DHT22;64985;46.364;17.008;2023-09-12T03:43:37;11.60;99.90
76203;DHT22;64985;46.364;17.008;2023-09-12T03:46:39;11.70;99.90
76203;DHT22;64985;46.364;17.008;2023-09-12T03:49:42;11.70;99.90
76203;DHT22;64985;46.364;17.008;2023-09-12T03:52:44;11.80;99.90
76203;DHT22;64985;46.364;17.008;2023-09-12T03:55:46;11.80;99.90
76203;DHT22;64985;46.364;17.008;2023-09-12T03:58:48;11.70;99.90
76203;DHT22;64985;46.364;17.008;2023-09-12T04:01:50;11.60;99.90
76203;DHT22;64985;46.364;17.008;2023-09-12T04:04:52;11.50;99.90
76203;DHT22;64985;46.364;17.008;2023-09-12T04:07:55;11.30;99.90
76203;DHT22;64985;46.364;17.008;2023-09-12T04:10:57;11.30;99.90
76203;DHT22;64985;46.364;17.008;2023-09-12T04:13:59;11.40;99.90
76203;DHT22;64985;46.364;17.008;2023-09-12T04:17:02;11.40;99.90
76203;DHT22;64985;46.364;17.008;2023-09-12T04:20:10;11.40;99.90
76203;DHT22;64985;46.364;17.008;2023-09-12T04:23:16;11.30;99.90
76203;DHT22;64985;46.364;17.008;2023-09-12T04:26:18;11.20;99.90
76203;DHT22;64985;46.364;17.008;2023-09-12T04:29:20;11.10;99.90
76203;DHT22;64985;46.364;17.008;2023-09-12T04:32:22;11.10;99.90
76203;DHT22;64985;46.364;17.008;2023-09-12T04:35:26;11.10;99.90
76203;DHT22;64985;46.364;17.008;2023-09-12T04:38:28;11.10;99.90
76203;DHT22;64985;46.364;17.008;2023-09-12T04:41:30;11.10;99.90
76203;DHT22;64985;46.364;17.008;2023-09-12T04:44:36;11.10;99.90
76203;DHT22;64985;46.364;17.008;2023-09-12T04:47:38;11.10;99.90
76203;DHT22;64985;46.364;17.008;2023-09-12T04:50:41;11.20;99.90
76203;DHT22;64985;46.364;17.008;2023-09-12T04:53:44;11.20;99.90
76203;DHT22;64985;46.364;17.008;2023-09-12T04:56:46;11.20;99.90
76203;DHT22;64985;46.364;17.008;2023-09-12T04:59:50;11.30;99.90
76203;DHT22;64985;46.364;17.008;2023-09-12T05:02:52;11.30;99.90
76203;DHT22;64985;46.364;17.008;2023-09-12T05:05:54;11.30;99.90
76203;DHT22;64985;46.364;17.008;2023-09-12T05:08:57;11.40;99.90
76203;DHT22;64985;46.364;17.008;2023-09-12T05:11:59;11.40;99.90
76203;DHT22;64985;46.364;17.008;2023-09-12T05:15:01;11.50;99.90
76203;DHT22;64985;46.364;17.008;2023-09-12T05:18:03;11.50;99.90
76203;DHT22;64985;46.364;17.008;2023-09-12T05:21:06;11.60;99.90
76203;DHT22;64985;46.364;17.008;2023-09-12T05:24:08;11.70;99.90
76203;DHT22;64985;46.364;17.008;2023-09-12T05:27:10;11.80;99.90
76203;DHT22;64985;46.364;17.008;2023-09-12T05:30:13;11.90;99.90
76203;DHT22;64985;46.364;17.008;2023-09-12T05:33:15;12.00;99.90
76203;DHT22;64985;46.364;17.008;2023-09-12T05:36:17;12.10;99.90
76203;DHT22;64985;46.364;17.008;2023-09-12T05:39:20;12.20;99.90
76203;DHT22;64985;46.364;17.008;2023-09-12T05:42:22;12.30;99.90
76203;DHT22;64985;46.364;17.008;2023-09-12T05:45:24;12.40;99.90
76203;DHT22;64985;46.364;17.008;2023-09-12T05:48:27;12.50;99.90
76203;DHT22;64985;46.364;17.008;2023-09-12T05:51:29;12.70;99.90
76203;DHT22;64985;46.364;17.008;2023-09-12T05:54:31;12.80;99.90
76203;DHT22;64985;46.364;17.008;2023-09-12T05:57:34;13.00;99.90
76203;DHT22;64985;46.364;17.008;2023-09-12T06:00:36;13.10;99.90
76203;DHT22;64985;46.364;17.008;2023-09-12T06:03:38;13.30;99.90
76203;DHT22;64985;46.364;17.008;2023-09-12T06:06:41;13.40;99.90
76203;DHT22;64985;46.364;17.008;2023-09-12T06:09:43;13.60;99.90
76203;DHT22;64985;46.364;17.008;2023-09-12T06:12:45;13.70;99.90
76203;DHT22;64985;46.364;17.008;2023-09-12T06:15:48;14.20;99.90
76203;DHT22;64985;46.364;17.008;2023-09-12T06:18:50;14.70;99.90
76203;DHT22;64985;46.364;17.008;2023-09-12T06:21:53;15.00;99.90
76203;DHT22;64985;46.364;17.008;2023-09-12T06:24:55;15.40;99.90
76203;DHT22;64985;46.364;17.008;2023-09-12T06:27:57;15.80;99.90
76203;DHT22;64985;46.364;17.008;2023-09-12T06:31:00;16.00;99.90
76203;DHT22;64985;46.364;17.008;2023-09-12T06:34:02;16.10;99.90
76203;DHT22;64985;46.364;17.008;2023-09-12T06:37:04;16.40;99.90
76203;DHT22;64985;46.364;17.008;2023-09-12T06:40:07;16.60;99.90
76203;DHT22;64985;46.364;17.008;2023-09-12T06:43:10;16.80;99.90
76203;DHT22;64985;46.364;17.008;2023-09-12T06:46:12;16.90;99.90
76203;DHT22;64985;46.364;17.008;2023-09-12T06:49:14;17.10;99.90
76203;DHT22;64985;46.364;17.008;2023-09-12T06:52:17;17.20;99.90
76203;DHT22;64985;46.364;17.008;2023-09-12T06:55:19;17.40;99.90
76203;DHT22;64985;46.364;17.008;2023-09-12T06:58:23;17.60;99.90
76203;DHT22;64985;46.364;17.008;2023-09-12T07:01:25;17.70;99.90
76203;DHT22;64985;46.364;17.008;2023-09-12T07:04:27;17.90;99.90
76203;DHT22;64985;46.364;17.008;2023-09-12T07:07:31;18.10;99.90
76203;DHT22;64985;46.364;17.008;2023-09-12T07:10:34;18.30;99.90
76203;DHT22;64985;46.364;17.008;2023-09-12T07:13:37;18.60;99.90
76203;DHT22;64985;46.364;17.008;2023-09-12T07:16:40;19.00;99.90
76203;DHT22;64985;46.364;17.008;2023-09-12T07:19:42;19.70;99.90
76203;DHT22;64985;46.364;17.008;2023-09-12T07:22:46;20.80;99.90
76203;DHT22;64985;46.364;17.008;2023-09-12T07:25:48;21.80;99.90
76203;DHT22;64985;46.364;17.008;2023-09-12T07:28:51;22.60;99.90
76203;DHT22;64985;46.364;17.008;2023-09-12T07:31:53;23.40;99.90
76203;DHT22;64985;46.364;17.008;2023-09-12T07:34:56;24.30;99.90
76203;DHT22;64985;46.364;17.008;2023-09-12T07:37:59;24.80;99.90
76203;DHT22;64985;46.364;17.008;2023-09-12T07:41:01;25.40;96.90
76203;DHT22;64985;46.364;17.008;2023-09-12T07:44:05;25.80;94.70
76203;DHT22;64985;46.364;17.008;2023-09-12T07:47:09;25.80;94.80
76203;DHT22;64985;46.364;17.008;2023-09-12T07:50:11;26.30;93.00
76203;DHT22;64985;46.364;17.008;2023-09-12T07:53:14;27.00;90.80
76203;DHT22;64985;46.364;17.008;2023-09-12T07:56:16;27.20;84.80
76203;DHT22;64985;46.364;17.008;2023-09-12T07:59:18;27.30;84.80
76203;DHT22;64985;46.364;17.008;2023-09-12T08:02:21;28.10;78.90
76203;DHT22;64985;46.364;17.008;2023-09-12T08:05:23;28.60;78.80
76203;DHT22;64985;46.364;17.008;2023-09-12T08:08:26;29.10;73.50
76203;DHT22;64985;46.364;17.008;2023-09-12T08:11:28;29.30;70.10
76203;DHT22;64985;46.364;17.008;2023-09-12T08:14:31;29.50;66.50
76203;DHT22;64985;46.364;17.008;2023-09-12T08:17:33;29.20;68.80
76203;DHT22;64985;46.364;17.008;2023-09-12T08:20:35;29.00;68.70
76203;DHT22;64985;46.364;17.008;2023-09-12T08:23:37;28.40;71.80
76203;DHT22;64985;46.364;17.008;2023-09-12T08:26:40;28.40;71.90
76203;DHT22;64985;46.364;17.008;2023-09-12T08:29:42;28.40;71.00
76203;DHT22;64985;46.364;17.008;2023-09-12T08:32:46;28.40;70.40
76203;DHT22;64985;46.364;17.008;2023-09-12T08:35:49;28.30;70.20
76203;DHT22;64985;46.364;17.008;2023-09-12T08:38:52;28.40;70.20
76203;DHT22;64985;46.364;17.008;2023-09-12T08:41:55;28.90;70.40
76203;DHT22;64985;46.364;17.008;2023-09-12T08:44:57;28.90;68.20
76203;DHT22;64985;46.364;17.008;2023-09-12T08:48:00;29.10;65.60
76203;DHT22;64985;46.364;17.008;2023-09-12T08:51:04;29.10;62.40
76203;DHT22;64985;46.364;17.008;2023-09-12T08:54:09;28.90;61.50
76203;DHT22;64985;46.364;17.008;2023-09-12T08:57:12;28.90;63.00
76203;DHT22;64985;46.364;17.008;2023-09-12T09:00:15;28.90;61.60
76203;DHT22;64985;46.364;17.008;2023-09-12T09:03:19;29.40;60.60
76203;DHT22;64985;46.364;17.008;2023-09-12T09:06:22;29.50;61.40
76203;DHT22;64985;46.364;17.008;2023-09-12T09:09:26;29.40;60.90
76203;DHT22;64985;46.364;17.008;2023-09-12T09:12:32;29.70;59.60
76203;DHT22;64985;46.364;17.008;2023-09-12T09:15:35;29.80;58.10
76203;DHT22;64985;46.364;17.008;2023-09-12T09:18:58;29.80;58.20
76203;DHT22;64985;46.364;17.008;2023-09-12T09:22:05;29.70;61.30
76203;DHT22;64985;46.364;17.008;2023-09-12T09:25:11;30.20;59.90
76203;DHT22;64985;46.364;17.008;2023-09-12T09:28:18;30.10;60.00
76203;DHT22;64985;46.364;17.008;2023-09-12T09:31:21;30.30;56.50
76203;DHT22;64985;46.364;17.008;2023-09-12T09:34:24;30.40;56.50
76203;DHT22;64985;46.364;17.008;2023-09-12T09:37:26;30.50;57.30
76203;DHT22;64985;46.364;17.008;2023-09-12T09:40:28;30.70;58.30
76203;DHT22;64985;46.364;17.008;2023-09-12T09:43:32;30.50;55.90
76203;DHT22;64985;46.364;17.008;2023-09-12T09:46:37;30.70;56.50
76203;DHT22;64985;46.364;17.008;2023-09-12T09:49:40;30.90;55.70
76203;DHT22;64985;46.364;17.008;2023-09-12T09:52:45;30.80;56.60
76203;DHT22;64985;46.364;17.008;2023-09-12T09:55:47;30.70;58.00
76203;DHT22;64985;46.364;17.008;2023-09-12T09:58:57;30.60;57.40
76203;DHT22;64985;46.364;17.008;2023-09-12T10:01:59;30.20;57.00
76203;DHT22;64985;46.364;17.008;2023-09-12T10:05:04;30.00;58.00
76203;DHT22;64985;46.364;17.008;2023-09-12T10:08:07;30.10;58.40
76203;DHT22;64985;46.364;17.008;2023-09-12T10:11:17;30.30;58.20
76203;DHT22;64985;46.364;17.008;2023-09-12T10:14:20;30.30;57.00
76203;DHT22;64985;46.364;17.008;2023-09-12T10:17:26;30.50;58.30
76203;DHT22;64985;46.364;17.008;2023-09-12T10:20:45;30.70;61.60
76203;DHT22;64985;46.364;17.008;2023-09-12T10:23:50;31.30;55.60
76203;DHT22;64985;46.364;17.008;2023-09-12T10:26:53;30.90;57.70
76203;DHT22;64985;46.364;17.008;2023-09-12T10:29:57;30.70;57.90
76203;DHT22;64985;46.364;17.008;2023-09-12T10:33:02;30.80;59.80
76203;DHT22;64985;46.364;17.008;2023-09-12T10:36:09;30.80;58.10
76203;DHT22;64985;46.364;17.008;2023-09-12T10:39:12;30.50;59.30
76203;DHT22;64985;46.364;17.008;2023-09-12T10:42:17;30.40;60.30
76203;DHT22;64985;46.364;17.008;2023-09-12T10:45:20;30.60;59.90
76203;DHT22;64985;46.364;17.008;2023-09-12T10:48:23;30.50;60.00
76203;DHT22;64985;46.364;17.008;2023-09-12T10:51:25;31.00;59.00
76203;DHT22;64985;46.364;17.008;2023-09-12T10:54:40;31.80;56.30
76203;DHT22;64985;46.364;17.008;2023-09-12T10:58:06;31.40;56.90
76203;DHT22;64985;46.364;17.008;2023-09-12T11:01:25;31.60;56.70
76203;DHT22;64985;46.364;17.008;2023-09-12T11:10:38;31.40;54.30
76203;DHT22;64985;46.364;17.008;2023-09-12T11:13:41;31.80;55.60
76203;DHT22;64985;46.364;17.008;2023-09-12T11:20:10;32.30;55.20
76203;DHT22;64985;46.364;17.008;2023-09-12T11:23:13;31.70;55.10
76203;DHT22;64985;46.364;17.008;2023-09-12T11:26:16;31.60;53.20
76203;DHT22;64985;46.364;17.008;2023-09-12T11:29:18;31.10;50.30
76203;DHT22;64985;46.364;17.008;2023-09-12T11:32:30;31.50;50.30
76203;DHT22;64985;46.364;17.008;2023-09-12T11:35:37;31.80;52.40
76203;DHT22;64985;46.364;17.008;2023-09-12T11:38:39;31.70;46.70
76203;DHT22;64985;46.364;17.008;2023-09-12T11:41:42;31.40;43.20
76203;DHT22;64985;46.364;17.008;2023-09-12T11:44:44;31.40;47.00
76203;DHT22;64985;46.364;17.008;2023-09-12T11:47:47;31.80;46.10
76203;DHT22;64985;46.364;17.008;2023-09-12T11:50:52;31.40;45.60
76203;DHT22;64985;46.364;17.008;2023-09-12T11:53:55;31.70;46.00
76203;DHT22;64985;46.364;17.008;2023-09-12T11:57:02;32.00;46.00
76203;DHT22;64985;46.364;17.008;2023-09-12T12:00:05;32.20;47.40
76203;DHT22;64985;46.364;17.008;2023-09-12T12:03:10;32.90;45.60
76203;DHT22;64985;46.364;17.008;2023-09-12T12:06:13;32.50;44.70
76203;DHT22;64985;46.364;17.008;2023-09-12T12:09:15;32.30;47.50
76203;DHT22;64985;46.364;17.008;2023-09-12T12:12:20;31.90;46.60
76203;DHT22;64985;46.364;17.008;2023-09-12T12:15:22;32.10;47.30
76203;DHT22;64985;46.364;17.008;2023-09-12T12:18:25;32.00;45.10
76203;DHT22;64985;46.364;17.008;2023-09-12T12:21:29;32.00;47.70
76203;DHT22;64985;46.364;17.008;2023-09-12T12:24:45;31.80;47.40
76203;DHT22;64985;46.364;17.008;2023-09-12T12:27:48;31.90;45.80
76203;DHT22;64985;46.364;17.008;2023-09-12T12:30:52;32.40;44.70
76203;DHT22;64985;46.364;17.008;2023-09-12T12:33:57;32.40;45.30
76203;DHT22;64985;46.364;17.008;2023-09-12T12:37:19;32.00;44.90
76203;DHT22;64985;46.364;17.008;2023-09-12T12:40:22;32.60;44.00
76203;DHT22;64985;46.364;17.008;2023-09-12T12:43:24;32.40;45.70
76203;DHT22;64985;46.364;17.008;2023-09-12T12:46:27;32.30;45.80
76203;DHT22;64985;46.364;17.008;2023-09-12T12:49:36;32.60;45.30
76203;DHT22;64985;46.364;17.008;2023-09-12T12:52:39;32.70;41.40
76203;DHT22;64985;46.364;17.008;2023-09-12T12:55:42;32.50;43.70
76203;DHT22;64985;46.364;17.008;2023-09-12T12:58:52;32.60;42.30
76203;DHT22;64985;46.364;17.008;2023-09-12T13:01:54;33.30;43.30
76203;DHT22;64985;46.364;17.008;2023-09-12T13:04:57;33.30;40.70
76203;DHT22;64985;46.364;17.008;2023-09-12T13:07:59;33.20;41.20
76203;DHT22;64985;46.364;17.008;2023-09-12T13:11:02;32.80;38.70
76203;DHT22;64985;46.364;17.008;2023-09-12T13:14:04;33.10;39.90
76203;DHT22;64985;46.364;17.008;2023-09-12T13:17:12;32.40;38.90
76203;DHT22;64985;46.364;17.008;2023-09-12T13:20:14;32.40;38.70
76203;DHT22;64985;46.364;17.008;2023-09-12T13:23:16;32.40;37.10
76203;DHT22;64985;46.364;17.008;2023-09-12T13:26:18;32.60;37.80
76203;DHT22;64985;46.364;17.008;2023-09-12T13:29:21;33.20;39.60
76203;DHT22;64985;46.364;17.008;2023-09-12T13:32:23;33.60;40.70
76203;DHT22;64985;46.364;17.008;2023-09-12T13:35:25;33.50;41.10
76203;DHT22;64985;46.364;17.008;2023-09-12T13:38:29;33.00;42.70
76203;DHT22;64985;46.364;17.008;2023-09-12T13:41:31;33.80;42.20
76203;DHT22;64985;46.364;17.008;2023-09-12T13:44:34;33.60;40.20
76203;DHT22;64985;46.364;17.008;2023-09-12T13:47:36;33.00;38.90
76203;DHT22;64985;46.364;17.008;2023-09-12T13:50:40;33.00;39.90
76203;DHT22;64985;46.364;17.008;2023-09-12T13:53:42;32.90;40.10
76203;DHT22;64985;46.364;17.008;2023-09-12T13:56:44;33.10;38.70
76203;DHT22;64985;46.364;17.008;2023-09-12T13:59:47;33.30;40.40
76203;DHT22;64985;46.364;17.008;2023-09-12T14:02:49;33.20;40.30
76203;DHT22;64985;46.364;17.008;2023-09-12T14:05:51;33.90;40.50
76203;DHT22;64985;46.364;17.008;2023-09-12T14:08:54;34.30;39.20
76203;DHT22;64985;46.364;17.008;2023-09-12T14:11:57;34.20;42.10
76203;DHT22;64985;46.364;17.008;2023-09-12T14:15:01;33.40;42.20
76203;DHT22;64985;46.364;17.008;2023-09-12T14:18:10;32.90;41.80
76203;DHT22;64985;46.364;17.008;2023-09-12T14:21:14;33.40;42.00
76203;DHT22;64985;46.364;17.008;2023-09-12T14:24:18;33.80;40.80
76203;DHT22;64985;46.364;17.008;2023-09-12T14:27:22;32.90;42.70
76203;DHT22;64985;46.364;17.008;2023-09-12T14:30:29;32.80;43.90
76203;DHT22;64985;46.364;17.008;2023-09-12T14:33:37;32.80;44.40
76203;DHT22;64985;46.364;17.008;2023-09-12T14:36:40;32.90;44.90
76203;DHT22;64985;46.364;17.008;2023-09-12T14:39:43;32.60;44.80
76203;DHT22;64985;46.364;17.008;2023-09-12T14:42:46;32.80;46.10
76203;DHT22;64985;46.364;17.008;2023-09-12T14:45:49;33.10;43.40
76203;DHT22;64985;46.364;17.008;2023-09-12T14:48:52;33.20;44.90
76203;DHT22;64985;46.364;17.008;2023-09-12T14:52:04;33.10;43.20
76203;DHT22;64985;46.364;17.008;2023-09-12T14:55:13;33.20;43.20
76203;DHT22;64985;46.364;17.008;2023-09-12T14:58:15;32.50;44.30
76203;DHT22;64985;46.364;17.008;2023-09-12T15:01:18;31.80;46.40
76203;DHT22;64985;46.364;17.008;2023-09-12T15:04:21;31.00;47.10
76203;DHT22;64985;46.364;17.008;2023-09-12T15:07:24;30.30;50.40
76203;DHT22;64985;46.364;17.008;2023-09-12T15:10:26;30.00;53.20
76203;DHT22;64985;46.364;17.008;2023-09-12T15:13:29;29.80;51.80
76203;DHT22;64985;46.364;17.008;2023-09-12T15:16:32;29.80;53.20
76203;DHT22;64985;46.364;17.008;2023-09-12T15:19:36;30.10;61.00
76203;DHT22;64985;46.364;17.008;2023-09-12T15:22:39;31.00;56.40
76203;DHT22;64985;46.364;17.008;2023-09-12T15:25:41;32.10;51.10
76203;DHT22;64985;46.364;17.008;2023-09-12T15:28:44;32.90;50.90
76203;DHT22;64985;46.364;17.008;2023-09-12T15:31:46;32.60;49.70
76203;DHT22;64985;46.364;17.008;2023-09-12T15:34:49;32.30;50.10
76203;DHT22;64985;46.364;17.008;2023-09-12T15:37:51;31.60;52.30
76203;DHT22;64985;46.364;17.008;2023-09-12T15:40:54;31.60;52.10
76203;DHT22;64985;46.364;17.008;2023-09-12T15:44:00;32.00;51.50
76203;DHT22;64985;46.364;17.008;2023-09-12T15:47:17;32.40;51.20
76203;DHT22;64985;46.364;17.008;2023-09-12T15:50:22;32.60;50.90
76203;DHT22;64985;46.364;17.008;2023-09-12T15:53:24;32.60;52.60
76203;DHT22;64985;46.364;17.008;2023-09-12T15:56:27;31.80;53.00
76203;DHT22;64985;46.364;17.008;2023-09-12T15:59:30;31.70;52.00
76203;DHT22;64985;46.364;17.008;2023-09-12T16:02:33;31.40;56.10
76203;DHT22;64985;46.364;17.008;2023-09-12T16:05:35;30.90;56.70
76203;DHT22;64985;46.364;17.008;2023-09-12T16:08:38;30.60;57.90
76203;DHT22;64985;46.364;17.008;2023-09-12T16:11:40;30.40;58.50
76203;DHT22;64985;46.364;17.008;2023-09-12T16:14:43;30.20;59.90
76203;DHT22;64985;46.364;17.008;2023-09-12T16:17:46;30.10;58.20
76203;DHT22;64985;46.364;17.008;2023-09-12T16:20:49;30.40;56.80
76203;DHT22;64985;46.364;17.008;2023-09-12T16:23:54;30.50;61.20
76203;DHT22;64985;46.364;17.008;2023-09-12T16:26:57;30.20;62.50
76203;DHT22;64985;46.364;17.008;2023-09-12T16:30:03;29.40;67.30
76203;DHT22;64985;46.364;17.008;2023-09-12T16:33:10;28.50;71.60
76203;DHT22;64985;46.364;17.008;2023-09-12T16:36:13;27.70;76.90
76203;DHT22;64985;46.364;17.008;2023-09-12T16:39:16;27.00;80.70
76203;DHT22;64985;46.364;17.008;2023-09-12T16:42:18;26.40;85.40
76203;DHT22;64985;46.364;17.008;2023-09-12T16:45:21;25.90;82.80
76203;DHT22;64985;46.364;17.008;2023-09-12T16:48:24;25.50;87.70
76203;DHT22;64985;46.364;17.008;2023-09-12T16:51:26;25.00;90.70
76203;DHT22;64985;46.364;17.008;2023-09-12T16:54:29;24.60;91.30
76203;DHT22;64985;46.364;17.008;2023-09-12T16:57:32;24.20;92.70
76203;DHT22;64985;46.364;17.008;2023-09-12T17:00:35;23.80;94.30
76203;DHT22;64985;46.364;17.008;2023-09-12T17:03:37;23.40;96.90
76203;DHT22;64985;46.364;17.008;2023-09-12T17:06:40;23.10;99.90
76203;DHT22;64985;46.364;17.008;2023-09-12T17:09:46;22.80;99.90
76203;DHT22;64985;46.364;17.008;2023-09-12T17:12:48;22.50;99.90
76203;DHT22;64985;46.364;17.008;2023-09-12T17:15:51;22.30;99.90
76203;DHT22;64985;46.364;17.008;2023-09-12T17:18:54;21.90;99.90
76203;DHT22;64985;46.364;17.008;2023-09-12T17:21:57;21.60;99.90
76203;DHT22;64985;46.364;17.008;2023-09-12T17:24:59;21.40;99.90
76203;DHT22;64985;46.364;17.008;2023-09-12T17:28:02;21.20;99.90
76203;DHT22;64985;46.364;17.008;2023-09-12T17:31:06;21.00;99.90
76203;DHT22;64985;46.364;17.008;2023-09-12T17:34:09;20.80;99.90
76203;DHT22;64985;46.364;17.008;2023-09-12T17:37:13;20.50;99.90
76203;DHT22;64985;46.364;17.008;2023-09-12T17:40:17;20.20;99.90
76203;DHT22;64985;46.364;17.008;2023-09-12T17:43:20;19.90;99.90
76203;DHT22;64985;46.364;17.008;2023-09-12T17:46:23;19.70;99.90
76203;DHT22;64985;46.364;17.008;2023-09-12T17:49:26;19.60;99.90
76203;DHT22;64985;46.364;17.008;2023-09-12T17:52:29;19.50;99.90
76203;DHT22;64985;46.364;17.008;2023-09-12T17:55:32;19.40;99.90
76203;DHT22;64985;46.364;17.008;2023-09-12T17:58:35;19.30;99.90
76203;DHT22;64985;46.364;17.008;2023-09-12T18:01:38;19.10;99.90
76203;DHT22;64985;46.364;17.008;2023-09-12T18:04:42;18.80;99.90
76203;DHT22;64985;46.364;17.008;2023-09-12T18:07:44;18.70;99.90
76203;DHT22;64985;46.364;17.008;2023-09-12T18:10:47;18.60;99.90
76203;DHT22;64985;46.364;17.008;2023-09-12T18:13:49;18.30;99.90
76203;DHT22;64985;46.364;17.008;2023-09-12T18:16:52;18.20;99.90
76203;DHT22;64985;46.364;17.008;2023-09-12T18:19:55;18.10;99.90
76203;DHT22;64985;46.364;17.008;2023-09-12T18:23:01;18.00;99.90
76203;DHT22;64985;46.364;17.008;2023-09-12T18:26:11;17.90;99.90
76203;DHT22;64985;46.364;17.008;2023-09-12T18:29:16;17.70;99.90
76203;DHT22;64985;46.364;17.008;2023-09-12T18:32:20;17.60;99.90
76203;DHT22;64985;46.364;17.008;2023-09-12T18:35:24;17.40;99.90
76203;DHT22;64985;46.364;17.008;2023-09-12T18:38:29;17.30;99.90
76203;DHT22;64985;46.364;17.008;2023-09-12T18:41:34;17.30;99.90
76203;DHT22;64985;46.364;17.008;2023-09-12T18:44:38;17.30;99.90
76203;DHT22;64985;46.364;17.008;2023-09-12T18:47:43;17.20;99.90
76203;DHT22;64985;46.364;17.008;2023-09-12T18:50:46;17.20;99.90
76203;DHT22;64985;46.364;17.008;2023-09-12T18:53:50;17.20;99.90
76203;DHT22;64985;46.364;17.008;2023-09-12T18:56:53;17.20;99.90
76203;DHT22;64985;46.364;17.008;2023-09-12T18:59:56;17.20;99.90
76203;DHT22;64985;46.364;17.008;2023-09-12T19:03:00;17.10;99.90
76203;DHT22;64985;46.364;17.008;2023-09-12T19:06:03;17.00;99.90
76203;DHT22;64985;46.364;17.008;2023-09-12T19:09:08;16.90;99.90
76203;DHT22;64985;46.364;17.008;2023-09-12T19:12:11;16.70;99.90
76203;DHT22;64985;46.364;17.008;2023-09-12T19:15:14;16.60;99.90